sensor_id;sensor_type;location;lat;lon;timestamp;pressure;altitude;pressure_sealevel;temperature;humidity
16777;BME280;8505;49.456;8.164;2023-02-02T00:01:22;100333.50;;;6.98;75.91
16777;BME280;8505;49.456;8.164;2023-02-02T00:03:52;100325.88;;;6.95;75.95
16777;BME280;8505;49.456;8.164;2023-02-02T00:06:22;100348.19;;;7.01;75.53
16777;BME280;8505;49.456;8.164;2023-02-02T00:08:50;100344.59;;;7.02;76.18
16777;BME280;8505;49.456;8.164;2023-02-02T00:11:18;100334.19;;;7.00;77.21
16777;BME280;8505;49.456;8.164;2023-02-02T00:13:46;100330.56;;;6.91;77.74
16777;BME280;8505;49.456;8.164;2023-02-02T00:16:40;100330.44;;;6.93;77.22
16777;BME280;8505;49.456;8.164;2023-02-02T00:19:12;100327.13;;;6.91;77.38
16777;BME280;8505;49.456;8.164;2023-02-02T00:21:40;100330.56;;;6.91;77.70
16777;BME280;8505;49.456;8.164;2023-02-02T00:24:10;100324.63;;;6.89;77.69
16777;BME280;8505;49.456;8.164;2023-02-02T00:26:39;100336.81;;;6.90;77.25
16777;BME280;8505;49.456;8.164;2023-02-02T00:29:12;100319.47;;;6.88;77.75
16777;BME280;8505;49.456;8.164;2023-02-02T00:31:40;100331.41;;;6.92;77.43
16777;BME280;8505;49.456;8.164;2023-02-02T00:34:10;100332.38;;;6.91;76.82
16777;BME280;8505;49.456;8.164;2023-02-02T00:36:38;100343.47;;;6.95;76.68
16777;BME280;8505;49.456;8.164;2023-02-02T00:39:06;100330.44;;;6.93;76.83
16777;BME280;8505;49.456;8.164;2023-02-02T00:41:34;100332.09;;;6.94;76.80
16777;BME280;8505;49.456;8.164;2023-02-02T00:44:02;100335.44;;;6.96;76.17
16777;BME280;8505;49.456;8.164;2023-02-02T00:46:47;100322.13;;;6.98;76.44
16777;BME280;8505;49.456;8.164;2023-02-02T00:49:16;100327.13;;;7.01;76.37
16777;BME280;8505;49.456;8.164;2023-02-02T00:51:44;100330.84;;;6.98;76.08
16777;BME280;8505;49.456;8.164;2023-02-02T00:54:11;100342.09;;;7.00;76.33
16777;BME280;8505;49.456;8.164;2023-02-02T00:56:39;100343.78;;;7.01;76.07
16777;BME280;8505;49.456;8.164;2023-02-02T00:59:07;100344.47;;;7.03;76.16
16777;BME280;8505;49.456;8.164;2023-02-02T01:01:35;100339.22;;;7.03;75.75
16777;BME280;8505;49.456;8.164;2023-02-02T01:04:03;100352.09;;;7.06;76.18
16777;BME280;8505;49.456;8.164;2023-02-02T01:06:32;100342.28;;;7.08;76.27
16777;BME280;8505;49.456;8.164;2023-02-02T01:08:59;100354.72;;;7.06;76.31
16777;BME280;8505;49.456;8.164;2023-02-02T01:11:27;100349.47;;;7.06;76.31
16777;BME280;8505;49.456;8.164;2023-02-02T01:13:56;100346.56;;;7.09;76.54
16777;BME280;8505;49.456;8.164;2023-02-02T01:16:24;100363.47;;;7.07;76.38
16777;BME280;8505;49.456;8.164;2023-02-02T01:19:17;100343.50;;;7.04;76.69
16777;BME280;8505;49.456;8.164;2023-02-02T01:21:46;100346.56;;;7.09;76.32
16777;BME280;8505;49.456;8.164;2023-02-02T01:24:13;100352.81;;;7.08;76.72
16777;BME280;8505;49.456;8.164;2023-02-02T01:26:41;100366.66;;;7.10;76.64
16777;BME280;8505;49.456;8.164;2023-02-02T01:29:09;100357.25;;;7.08;76.70
16777;BME280;8505;49.456;8.164;2023-02-02T01:31:37;100358.06;;;7.08;76.69
16777;BME280;8505;49.456;8.164;2023-02-02T01:34:22;100364.31;;;7.07;76.94
16777;BME280;8505;49.456;8.164;2023-02-02T01:36:51;100373.34;;;7.14;76.70
16777;BME280;8505;49.456;8.164;2023-02-02T01:39:19;100365.69;;;7.11;76.86
16777;BME280;8505;49.456;8.164;2023-02-02T01:41:47;100376.09;;;7.13;76.92
16777;BME280;8505;49.456;8.164;2023-02-02T01:45:11;100377.66;;;7.15;76.96
16777;BME280;8505;49.456;8.164;2023-02-02T01:47:42;100373.47;;;7.13;76.83
16777;BME280;8505;49.456;8.164;2023-02-02T01:50:14;100378.84;;;7.11;76.86
16777;BME280;8505;49.456;8.164;2023-02-02T01:52:46;100370.28;;;7.09;77.33
16777;BME280;8505;49.456;8.164;2023-02-02T01:55:17;100373.47;;;7.13;76.67
16777;BME280;8505;49.456;8.164;2023-02-02T01:57:51;100380.13;;;7.17;77.13
16777;BME280;8505;49.456;8.164;2023-02-02T02:00:21;100369.03;;;7.13;76.94
16777;BME280;8505;49.456;8.164;2023-02-02T02:02:56;100372.63;;;7.12;77.24
16777;BME280;8505;49.456;8.164;2023-02-02T02:05:28;100370.28;;;7.09;77.25
16777;BME280;8505;49.456;8.164;2023-02-02T02:08:03;100369.03;;;7.13;77.38
16777;BME280;8505;49.456;8.164;2023-02-02T02:10:32;100370.72;;;7.14;77.47
16777;BME280;8505;49.456;8.164;2023-02-02T02:13:00;100371.53;;;7.15;77.33
16777;BME280;8505;49.456;8.164;2023-02-02T02:15:30;100367.25;;;7.14;77.53
16777;BME280;8505;49.456;8.164;2023-02-02T02:18:32;100359.03;;;7.07;77.99
16777;BME280;8505;49.456;8.164;2023-02-02T02:21:44;100369.03;;;7.13;78.02
16777;BME280;8505;49.456;8.164;2023-02-02T02:25:02;100369.28;;;7.10;77.57
16777;BME280;8505;49.456;8.164;2023-02-02T02:31:17;100363.91;;;7.12;77.62
16777;BME280;8505;49.456;8.164;2023-02-02T02:33:56;100376.50;;;7.08;78.25
16777;BME280;8505;49.456;8.164;2023-02-02T02:36:33;100372.19;;;7.07;78.08
16777;BME280;8505;49.456;8.164;2023-02-02T02:39:11;100374.25;;;7.04;78.35
16777;BME280;8505;49.456;8.164;2023-02-02T02:41:44;100371.78;;;7.02;78.53
16777;BME280;8505;49.456;8.164;2023-02-02T02:44:15;100376.75;;;7.05;78.86
16777;BME280;8505;49.456;8.164;2023-02-02T02:46:44;100370.22;;;7.00;79.18
16777;BME280;8505;49.456;8.164;2023-02-02T02:49:15;100360.28;;;7.03;78.88
16777;BME280;8505;49.456;8.164;2023-02-02T02:51:45;100363.16;;;7.00;78.80
16777;BME280;8505;49.456;8.164;2023-02-02T02:54:17;100364.97;;;7.00;78.54
16777;BME280;8505;49.456;8.164;2023-02-02T02:56:56;100362.50;;;7.08;78.70
16777;BME280;8505;49.456;8.164;2023-02-02T02:59:33;100364.66;;;6.93;79.34
16777;BME280;8505;49.456;8.164;2023-02-02T03:02:12;100370.63;;;6.95;79.48
16777;BME280;8505;49.456;8.164;2023-02-02T03:04:53;100370.09;;;7.01;78.92
16777;BME280;8505;49.456;8.164;2023-02-02T03:07:26;100367.34;;;7.03;78.84
16777;BME280;8505;49.456;8.164;2023-02-02T03:09:58;100362.06;;;7.03;78.80
16777;BME280;8505;49.456;8.164;2023-02-02T03:12:27;100346.53;;;7.00;79.07
16777;BME280;8505;49.456;8.164;2023-02-02T03:14:54;100361.25;;;7.02;78.64
16777;BME280;8505;49.456;8.164;2023-02-02T03:17:22;100347.13;;;7.03;78.74
16777;BME280;8505;49.456;8.164;2023-02-02T03:19:51;100354.44;;;7.00;78.67
16777;BME280;8505;49.456;8.164;2023-02-02T03:22:19;100355.69;;;6.96;78.55
16777;BME280;8505;49.456;8.164;2023-02-02T03:24:46;100351.09;;;6.98;78.69
16777;BME280;8505;49.456;8.164;2023-02-02T03:27:14;100350.97;;;6.99;78.82
16777;BME280;8505;49.456;8.164;2023-02-02T03:29:42;100358.84;;;6.99;78.38
16777;BME280;8505;49.456;8.164;2023-02-02T03:32:09;100361.25;;;7.02;78.18
16777;BME280;8505;49.456;8.164;2023-02-02T03:34:37;100347.78;;;7.05;78.38
16777;BME280;8505;49.456;8.164;2023-02-02T03:37:06;100346.28;;;7.03;78.11
16777;BME280;8505;49.456;8.164;2023-02-02T03:39:34;100325.34;;;7.01;78.19
16777;BME280;8505;49.456;8.164;2023-02-02T03:42:01;100340.44;;;6.99;78.05
16777;BME280;8505;49.456;8.164;2023-02-02T03:44:29;100343.91;;;7.00;78.10
16777;BME280;8505;49.456;8.164;2023-02-02T03:46:56;100349.03;;;7.01;77.59
16777;BME280;8505;49.456;8.164;2023-02-02T03:49:24;100350.97;;;6.99;77.80
16777;BME280;8505;49.456;8.164;2023-02-02T03:51:52;100360.53;;;7.00;77.88
16777;BME280;8505;49.456;8.164;2023-02-02T03:54:21;100360.97;;;7.05;78.05
16777;BME280;8505;49.456;8.164;2023-02-02T03:56:49;100360.00;;;7.06;77.63
16777;BME280;8505;49.456;8.164;2023-02-02T03:59:16;100367.50;;;7.11;77.60
16777;BME280;8505;49.456;8.164;2023-02-02T04:01:44;100374.13;;;7.05;77.96
16777;BME280;8505;49.456;8.164;2023-02-02T04:04:11;100368.72;;;7.07;77.57
16777;BME280;8505;49.456;8.164;2023-02-02T04:06:39;100378.19;;;7.09;77.77
16777;BME280;8505;49.456;8.164;2023-02-02T04:09:07;100378.97;;;7.10;77.57
16777;BME280;8505;49.456;8.164;2023-02-02T04:11:36;100380.81;;;7.09;77.57
16777;BME280;8505;49.456;8.164;2023-02-02T04:14:05;100385.25;;;7.18;77.21
16777;BME280;8505;49.456;8.164;2023-02-02T04:16:33;100397.59;;;7.18;77.27
16777;BME280;8505;49.456;8.164;2023-02-02T04:19:03;100386.41;;;7.25;76.69
16777;BME280;8505;49.456;8.164;2023-02-02T04:21:31;100397.19;;;7.22;76.62
16777;BME280;8505;49.456;8.164;2023-02-02T04:23:58;100409.28;;;7.25;76.45
16777;BME280;8505;49.456;8.164;2023-02-02T04:26:26;100395.97;;;7.26;76.62
16777;BME280;8505;49.456;8.164;2023-02-02T04:28:55;100396.94;;;7.35;76.25
16777;BME280;8505;49.456;8.164;2023-02-02T04:31:23;100401.91;;;7.28;75.97
16777;BME280;8505;49.456;8.164;2023-02-02T04:33:51;100408.31;;;7.26;76.26
16777;BME280;8505;49.456;8.164;2023-02-02T04:36:18;100417.16;;;7.25;76.32
16777;BME280;8505;49.456;8.164;2023-02-02T04:38:47;100412.88;;;7.24;76.27
16777;BME280;8505;49.456;8.164;2023-02-02T04:41:15;100421.19;;;7.19;76.74
16777;BME280;8505;49.456;8.164;2023-02-02T04:43:44;100426.63;;;7.27;76.33
16777;BME280;8505;49.456;8.164;2023-02-02T04:46:13;100421.72;;;7.23;76.52
16777;BME280;8505;49.456;8.164;2023-02-02T04:48:41;100427.59;;;7.26;76.16
16777;BME280;8505;49.456;8.164;2023-02-02T04:51:11;100432.13;;;7.24;76.26
16777;BME280;8505;49.456;8.164;2023-02-02T04:53:39;100437.69;;;7.21;76.49
16777;BME280;8505;49.456;8.164;2023-02-02T04:56:08;100423.81;;;7.19;76.80
16777;BME280;8505;49.456;8.164;2023-02-02T04:58:36;100421.47;;;7.26;76.31
16777;BME280;8505;49.456;8.164;2023-02-02T05:01:07;100426.31;;;7.21;76.76
16777;BME280;8505;49.456;8.164;2023-02-02T05:03:37;100424.91;;;7.17;76.72
16777;BME280;8505;49.456;8.164;2023-02-02T05:06:06;100417.81;;;7.17;76.99
16777;BME280;8505;49.456;8.164;2023-02-02T05:08:33;100423.69;;;7.21;76.93
16777;BME280;8505;49.456;8.164;2023-02-02T05:11:05;100433.09;;;7.23;76.92
16777;BME280;8505;49.456;8.164;2023-02-02T05:13:33;100438.22;;;7.15;76.89
16777;BME280;8505;49.456;8.164;2023-02-02T05:16:01;100423.53;;;7.22;76.71
16777;BME280;8505;49.456;8.164;2023-02-02T05:18:29;100427.28;;;7.20;76.79
16777;BME280;8505;49.456;8.164;2023-02-02T05:20:59;100432.41;;;7.21;78.21
16777;BME280;8505;49.456;8.164;2023-02-02T05:23:28;100436.97;;;7.19;78.18
16777;BME280;8505;49.456;8.164;2023-02-02T05:25:56;100426.56;;;7.18;78.13
16777;BME280;8505;49.456;8.164;2023-02-02T05:28:24;100437.50;;;7.13;78.59
16777;BME280;8505;49.456;8.164;2023-02-02T05:30:51;100435.41;;;7.07;79.04
16777;BME280;8505;49.456;8.164;2023-02-02T05:33:19;100443.72;;;7.12;78.44
16777;BME280;8505;49.456;8.164;2023-02-02T05:35:47;100451.63;;;7.12;78.56
16777;BME280;8505;49.456;8.164;2023-02-02T05:38:16;100444.00;;;7.09;78.54
16777;BME280;8505;49.456;8.164;2023-02-02T05:40:44;100446.66;;;7.09;78.40
16777;BME280;8505;49.456;8.164;2023-02-02T05:43:11;100447.44;;;7.10;78.94
16777;BME280;8505;49.456;8.164;2023-02-02T05:45:39;100437.31;;;7.05;79.13
16777;BME280;8505;49.456;8.164;2023-02-02T05:48:08;100444.13;;;7.08;78.63
16777;BME280;8505;49.456;8.164;2023-02-02T05:50:35;100448.25;;;7.01;79.13
16777;BME280;8505;49.456;8.164;2023-02-02T05:53:03;100451.44;;;7.04;79.46
16777;BME280;8505;49.456;8.164;2023-02-02T05:55:32;100440.47;;;6.99;79.75
16777;BME280;8505;49.456;8.164;2023-02-02T05:58:00;100461.09;;;6.94;80.37
16777;BME280;8505;49.456;8.164;2023-02-02T06:00:27;100460.06;;;6.85;81.92
16777;BME280;8505;49.456;8.164;2023-02-02T06:02:55;100459.28;;;6.85;81.84
16777;BME280;8505;49.456;8.164;2023-02-02T06:05:22;100466.69;;;6.80;82.80
16777;BME280;8505;49.456;8.164;2023-02-02T06:07:50;100453.81;;;6.77;83.00
16777;BME280;8505;49.456;8.164;2023-02-02T06:10:18;100455.84;;;6.73;82.59
16777;BME280;8505;49.456;8.164;2023-02-02T06:12:47;100468.69;;;6.67;83.40
16777;BME280;8505;49.456;8.164;2023-02-02T06:15:15;100465.38;;;6.65;82.92
16777;BME280;8505;49.456;8.164;2023-02-02T06:17:42;100464.84;;;6.71;83.35
16777;BME280;8505;49.456;8.164;2023-02-02T06:20:11;100465.81;;;6.70;82.49
16777;BME280;8505;49.456;8.164;2023-02-02T06:22:39;100464.59;;;6.74;82.88
16777;BME280;8505;49.456;8.164;2023-02-02T06:25:08;100466.25;;;6.75;82.34
16777;BME280;8505;49.456;8.164;2023-02-02T06:27:36;100477.75;;;6.74;81.89
16777;BME280;8505;49.456;8.164;2023-02-02T06:30:06;100467.66;;;6.79;81.69
16777;BME280;8505;49.456;8.164;2023-02-02T06:32:33;100468.16;;;6.73;81.83
16777;BME280;8505;49.456;8.164;2023-02-02T06:35:01;100451.88;;;6.79;81.85
16777;BME280;8505;49.456;8.164;2023-02-02T06:37:29;100462.53;;;6.77;81.70
16777;BME280;8505;49.456;8.164;2023-02-02T06:39:56;100481.94;;;6.76;81.86
16777;BME280;8505;49.456;8.164;2023-02-02T06:42:24;100461.59;;;6.78;81.37
16777;BME280;8505;49.456;8.164;2023-02-02T06:44:52;100478.34;;;6.77;81.68
16777;BME280;8505;49.456;8.164;2023-02-02T06:47:21;100473.75;;;6.79;81.90
16777;BME280;8505;49.456;8.164;2023-02-02T06:49:50;100469.09;;;6.83;81.49
16777;BME280;8505;49.456;8.164;2023-02-02T06:52:18;100463.81;;;6.83;80.98
16777;BME280;8505;49.456;8.164;2023-02-02T06:54:45;100476.47;;;6.89;80.46
16777;BME280;8505;49.456;8.164;2023-02-02T06:57:13;100473.84;;;6.89;80.66
16777;BME280;8505;49.456;8.164;2023-02-02T06:59:41;100455.41;;;6.89;80.58
16777;BME280;8505;49.456;8.164;2023-02-02T07:02:09;100448.47;;;6.88;81.24
16777;BME280;8505;49.456;8.164;2023-02-02T07:04:40;100479.50;;;6.84;81.79
16777;BME280;8505;49.456;8.164;2023-02-02T07:07:07;100474.34;;;6.83;81.80
16777;BME280;8505;49.456;8.164;2023-02-02T07:09:35;100454.25;;;6.82;82.11
16777;BME280;8505;49.456;8.164;2023-02-02T07:12:03;100436.47;;;6.74;83.13
16777;BME280;8505;49.456;8.164;2023-02-02T07:14:30;100456.69;;;6.74;82.91
16777;BME280;8505;49.456;8.164;2023-02-02T07:16:58;100451.94;;;6.68;83.73
16777;BME280;8505;49.456;8.164;2023-02-02T07:19:25;100450.97;;;6.69;83.24
16777;BME280;8505;49.456;8.164;2023-02-02T07:21:54;100446.44;;;6.71;83.49
16777;BME280;8505;49.456;8.164;2023-02-02T07:24:22;100465.09;;;6.68;82.90
16777;BME280;8505;49.456;8.164;2023-02-02T07:26:49;100468.84;;;6.65;83.82
16777;BME280;8505;49.456;8.164;2023-02-02T07:29:17;100483.28;;;6.71;83.89
16777;BME280;8505;49.456;8.164;2023-02-02T07:31:45;100491.16;;;6.71;84.24
16777;BME280;8505;49.456;8.164;2023-02-02T07:34:12;100489.06;;;6.65;84.14
16777;BME280;8505;49.456;8.164;2023-02-02T07:36:40;100490.97;;;6.63;84.21
16777;BME280;8505;49.456;8.164;2023-02-02T07:39:10;100495.16;;;6.65;84.01
16777;BME280;8505;49.456;8.164;2023-02-02T07:41:38;100501.81;;;6.69;83.91
16777;BME280;8505;49.456;8.164;2023-02-02T07:44:05;100497.06;;;6.63;84.24
16777;BME280;8505;49.456;8.164;2023-02-02T07:46:33;100512.97;;;6.62;84.46
16777;BME280;8505;49.456;8.164;2023-02-02T07:49:01;100518.44;;;6.70;83.88
16777;BME280;8505;49.456;8.164;2023-02-02T07:51:29;100521.66;;;6.73;83.56
16777;BME280;8505;49.456;8.164;2023-02-02T07:53:57;100507.53;;;6.74;83.61
16777;BME280;8505;49.456;8.164;2023-02-02T07:56:26;100512.41;;;6.79;83.01
16777;BME280;8505;49.456;8.164;2023-02-02T07:58:55;100493.00;;;6.80;83.13
16777;BME280;8505;49.456;8.164;2023-02-02T08:01:23;100494.69;;;6.81;82.76
16777;BME280;8505;49.456;8.164;2023-02-02T08:03:53;100489.44;;;6.81;82.74
16777;BME280;8505;49.456;8.164;2023-02-02T08:06:22;100491.09;;;6.82;82.11
16777;BME280;8505;49.456;8.164;2023-02-02T08:08:50;100500.66;;;6.83;82.33
16777;BME280;8505;49.456;8.164;2023-02-02T08:11:20;100510.38;;;6.82;82.29
16777;BME280;8505;49.456;8.164;2023-02-02T08:13:51;100499.44;;;6.87;82.08
16777;BME280;8505;49.456;8.164;2023-02-02T08:16:19;100505.22;;;6.81;82.20
16777;BME280;8505;49.456;8.164;2023-02-02T08:18:47;100501.63;;;6.82;81.99
16777;BME280;8505;49.456;8.164;2023-02-02T08:21:16;100503.31;;;6.83;81.63
16777;BME280;8505;49.456;8.164;2023-02-02T08:23:44;100501.38;;;6.85;81.50
16777;BME280;8505;49.456;8.164;2023-02-02T08:26:14;100488.91;;;6.87;81.38
16777;BME280;8505;49.456;8.164;2023-02-02T08:28:45;100473.56;;;6.92;80.86
16777;BME280;8505;49.456;8.164;2023-02-02T08:31:17;100465.28;;;6.97;80.65
16777;BME280;8505;49.456;8.164;2023-02-02T08:33:45;100487.31;;;6.96;80.46
16777;BME280;8505;49.456;8.164;2023-02-02T08:36:13;100491.63;;;6.97;80.64
16777;BME280;8505;49.456;8.164;2023-02-02T08:38:42;100488.19;;;7.06;78.68
16777;BME280;8505;49.456;8.164;2023-02-02T08:41:11;100519.41;;;7.10;78.99
16777;BME280;8505;49.456;8.164;2023-02-02T08:43:40;100500.84;;;7.12;79.09
16777;BME280;8505;49.456;8.164;2023-02-02T08:46:09;100500.72;;;7.13;78.85
16777;BME280;8505;49.456;8.164;2023-02-02T08:48:39;100503.34;;;7.13;78.72
16777;BME280;8505;49.456;8.164;2023-02-02T08:51:09;100513.47;;;7.18;78.26
16777;BME280;8505;49.456;8.164;2023-02-02T08:53:37;100504.38;;;7.22;78.20
16777;BME280;8505;49.456;8.164;2023-02-02T08:56:06;100524.63;;;7.21;77.71
16777;BME280;8505;49.456;8.164;2023-02-02T08:58:36;100525.16;;;7.25;77.26
16777;BME280;8505;49.456;8.164;2023-02-02T09:01:05;100531.00;;;7.28;77.43
16777;BME280;8505;49.456;8.164;2023-02-02T09:03:33;100532.44;;;7.32;77.16
16777;BME280;8505;49.456;8.164;2023-02-02T09:06:07;100543.66;;;7.35;77.02
16777;BME280;8505;49.456;8.164;2023-02-02T09:08:36;100531.31;;;7.35;77.12
16777;BME280;8505;49.456;8.164;2023-02-02T09:11:05;100533.69;;;7.38;76.57
16777;BME280;8505;49.456;8.164;2023-02-02T09:13:34;100534.78;;;7.36;76.59
16777;BME280;8505;49.456;8.164;2023-02-02T09:16:04;100527.31;;;7.41;76.14
16777;BME280;8505;49.456;8.164;2023-02-02T09:18:32;100521.53;;;7.47;76.12
16777;BME280;8505;49.456;8.164;2023-02-02T09:21:00;100520.56;;;7.48;75.59
16777;BME280;8505;49.456;8.164;2023-02-02T09:23:30;100511.56;;;7.50;75.46
16777;BME280;8505;49.456;8.164;2023-02-02T09:26:07;100513.38;;;7.50;75.45
16777;BME280;8505;49.456;8.164;2023-02-02T09:28:36;100513.13;;;7.53;75.29
16777;BME280;8505;49.456;8.164;2023-02-02T09:31:05;100509.94;;;7.59;74.88
16777;BME280;8505;49.456;8.164;2023-02-02T09:33:33;100515.78;;;7.62;74.82
16777;BME280;8505;49.456;8.164;2023-02-02T09:36:05;100520.50;;;7.59;75.55
16777;BME280;8505;49.456;8.164;2023-02-02T09:38:35;100522.31;;;7.68;74.62
16777;BME280;8505;49.456;8.164;2023-02-02T09:41:22;100529.97;;;7.71;74.35
16777;BME280;8505;49.456;8.164;2023-02-02T09:43:58;100521.22;;;7.70;74.56
16777;BME280;8505;49.456;8.164;2023-02-02T09:46:38;100520.22;;;7.71;74.28
16777;BME280;8505;49.456;8.164;2023-02-02T09:49:14;100520.22;;;7.71;74.21
16777;BME280;8505;49.456;8.164;2023-02-02T09:51:46;100522.75;;;7.73;73.91
16777;BME280;8505;49.456;8.164;2023-02-02T09:54:19;100507.50;;;7.77;73.71
16777;BME280;8505;49.456;8.164;2023-02-02T09:56:49;100533.47;;;7.81;73.86
16777;BME280;8505;49.456;8.164;2023-02-02T09:59:25;100533.88;;;7.86;73.43
16777;BME280;8505;49.456;8.164;2023-02-02T10:01:56;100517.94;;;7.88;72.80
16777;BME280;8505;49.456;8.164;2023-02-02T10:04:28;100525.72;;;7.89;73.20
16777;BME280;8505;49.456;8.164;2023-02-02T10:07:04;100521.53;;;7.96;73.14
16777;BME280;8505;49.456;8.164;2023-02-02T10:09:39;100534.06;;;7.94;72.95
16777;BME280;8505;49.456;8.164;2023-02-02T10:12:20;100533.09;;;8.05;73.00
16777;BME280;8505;49.456;8.164;2023-02-02T10:14:54;100554.63;;;8.00;72.23
16777;BME280;8505;49.456;8.164;2023-02-02T10:17:36;100540.19;;;8.04;72.60
16777;BME280;8505;49.456;8.164;2023-02-02T10:20:14;100534.19;;;8.02;73.03
16777;BME280;8505;49.456;8.164;2023-02-02T10:22:45;100546.66;;;7.91;73.33
16777;BME280;8505;49.456;8.164;2023-02-02T10:25:16;100545.97;;;7.89;73.14
16777;BME280;8505;49.456;8.164;2023-02-02T10:27:50;100548.75;;;7.87;73.23
16777;BME280;8505;49.456;8.164;2023-02-02T10:30:28;100542.50;;;7.88;73.64
16777;BME280;8505;49.456;8.164;2023-02-02T10:33:04;100560.56;;;7.93;73.54
16777;BME280;8505;49.456;8.164;2023-02-02T10:35:37;100571.94;;;7.93;73.58
16777;BME280;8505;49.456;8.164;2023-02-02T10:38:18;100565.16;;;8.00;73.60
16777;BME280;8505;49.456;8.164;2023-02-02T10:40:58;100556.13;;;8.03;73.45
16777;BME280;8505;49.456;8.164;2023-02-02T10:43:41;100567.25;;;8.06;73.20
16777;BME280;8505;49.456;8.164;2023-02-02T10:46:19;100563.06;;;8.04;73.17
16777;BME280;8505;49.456;8.164;2023-02-02T10:48:53;100578.38;;;8.10;72.96
16777;BME280;8505;49.456;8.164;2023-02-02T10:51:27;100579.50;;;8.17;73.10
16777;BME280;8505;49.456;8.164;2023-02-02T10:53:57;100574.94;;;8.19;73.33
16777;BME280;8505;49.456;8.164;2023-02-02T10:56:32;100573.88;;;8.41;72.61
16777;BME280;8505;49.456;8.164;2023-02-02T10:59:04;100575.34;;;8.15;73.55
16777;BME280;8505;49.456;8.164;2023-02-02T11:01:32;100582.84;;;8.29;73.01
16777;BME280;8505;49.456;8.164;2023-02-02T11:04:00;100567.44;;;8.24;72.83
16777;BME280;8505;49.456;8.164;2023-02-02T11:06:45;100580.34;;;8.27;72.71
16777;BME280;8505;49.456;8.164;2023-02-02T11:09:19;100575.59;;;8.11;73.25
16777;BME280;8505;49.456;8.164;2023-02-02T11:11:51;100572.84;;;8.23;72.75
16777;BME280;8505;49.456;8.164;2023-02-02T11:14:28;100547.97;;;8.06;73.30
16777;BME280;8505;49.456;8.164;2023-02-02T11:17:02;100568.81;;;8.19;72.83
16777;BME280;8505;49.456;8.164;2023-02-02T11:19:32;100575.47;;;8.23;72.66
16777;BME280;8505;49.456;8.164;2023-02-02T11:22:01;100580.09;;;8.21;72.83
16777;BME280;8505;49.456;8.164;2023-02-02T11:24:43;100574.94;;;8.19;72.26
16777;BME280;8505;49.456;8.164;2023-02-02T11:27:14;100557.31;;;8.20;72.45
16777;BME280;8505;49.456;8.164;2023-02-02T11:29:46;100583.41;;;8.23;72.38
16777;BME280;8505;49.456;8.164;2023-02-02T11:32:19;100575.47;;;8.23;72.21
16777;BME280;8505;49.456;8.164;2023-02-02T11:35:18;100581.88;;;8.30;72.36
16777;BME280;8505;49.456;8.164;2023-02-02T11:37:58;100577.16;;;8.24;72.31
16777;BME280;8505;49.456;8.164;2023-02-02T11:40:30;100575.78;;;8.29;72.53
16777;BME280;8505;49.456;8.164;2023-02-02T11:43:02;100570.41;;;8.31;72.61
16777;BME280;8505;49.456;8.164;2023-02-02T11:45:33;100569.94;;;8.26;72.36
16777;BME280;8505;49.456;8.164;2023-02-02T11:48:05;100564.81;;;8.24;72.41
16777;BME280;8505;49.456;8.164;2023-02-02T11:50:34;100572.59;;;8.26;72.19
16777;BME280;8505;49.456;8.164;2023-02-02T11:53:02;100572.19;;;8.30;72.07
16777;BME280;8505;49.456;8.164;2023-02-02T11:55:30;100580.41;;;8.37;71.66
16777;BME280;8505;49.456;8.164;2023-02-02T11:58:20;100590.25;;;8.35;71.61
16777;BME280;8505;49.456;8.164;2023-02-02T12:00:58;100590.78;;;8.29;71.62
16777;BME280;8505;49.456;8.164;2023-02-02T12:03:30;100594.16;;;8.31;71.87
16777;BME280;8505;49.456;8.164;2023-02-02T12:05:58;100581.88;;;8.30;71.58
16777;BME280;8505;49.456;8.164;2023-02-02T12:08:29;100598.22;;;8.44;71.32
16777;BME280;8505;49.456;8.164;2023-02-02T12:10:59;100599.31;;;8.42;71.79
16777;BME280;8505;49.456;8.164;2023-02-02T12:13:41;100589.59;;;8.33;71.55
16777;BME280;8505;49.456;8.164;2023-02-02T12:16:29;100588.88;;;8.40;71.84
16777;BME280;8505;49.456;8.164;2023-02-02T12:19:14;100586.09;;;8.42;71.50
16777;BME280;8505;49.456;8.164;2023-02-02T12:21:52;100575.00;;;8.48;71.43
16777;BME280;8505;49.456;8.164;2023-02-02T12:24:29;100573.06;;;8.50;71.12
16777;BME280;8505;49.456;8.164;2023-02-02T12:27:08;100563.59;;;8.47;71.23
16777;BME280;8505;49.456;8.164;2023-02-02T12:29:57;100567.09;;;8.38;71.83
16777;BME280;8505;49.456;8.164;2023-02-02T12:32:48;100568.59;;;8.41;71.71
16777;BME280;8505;49.456;8.164;2023-02-02T12:35:31;100565.00;;;8.42;72.04
16777;BME280;8505;49.456;8.164;2023-02-02T12:38:11;100561.38;;;8.43;72.25
16777;BME280;8505;49.456;8.164;2023-02-02T12:40:51;100569.03;;;8.36;71.90
16777;BME280;8505;49.456;8.164;2023-02-02T12:43:29;100568.88;;;8.38;72.50
16777;BME280;8505;49.456;8.164;2023-02-02T12:46:11;100572.09;;;8.70;71.64
16777;BME280;8505;49.456;8.164;2023-02-02T12:48:54;100566.50;;;9.02;70.27
16777;BME280;8505;49.456;8.164;2023-02-02T12:51:40;100561.97;;;8.95;70.45
16777;BME280;8505;49.456;8.164;2023-02-02T12:54:21;100560.00;;;8.97;70.13
16777;BME280;8505;49.456;8.164;2023-02-02T12:57:08;100552.44;;;9.21;69.25
16777;BME280;8505;49.456;8.164;2023-02-02T12:59:57;100560.56;;;9.00;69.53
16777;BME280;8505;49.456;8.164;2023-02-02T13:02:32;100560.53;;;9.10;69.49
16777;BME280;8505;49.456;8.164;2023-02-02T13:05:27;100552.53;;;8.82;70.31
16777;BME280;8505;49.456;8.164;2023-02-02T13:08:03;100548.63;;;8.67;71.17
16777;BME280;8505;49.456;8.164;2023-02-02T13:10:37;100554.88;;;8.66;71.41
16777;BME280;8505;49.456;8.164;2023-02-02T13:13:09;100543.19;;;8.59;72.04
16777;BME280;8505;49.456;8.164;2023-02-02T13:15:41;100555.69;;;8.67;71.50
16777;BME280;8505;49.456;8.164;2023-02-02T13:18:14;100560.72;;;8.70;71.76
16777;BME280;8505;49.456;8.164;2023-02-02T13:20:47;100567.91;;;8.58;71.56
16777;BME280;8505;49.456;8.164;2023-02-02T13:23:21;100569.19;;;8.73;71.48
16777;BME280;8505;49.456;8.164;2023-02-02T13:25:56;100568.63;;;8.60;71.47
16777;BME280;8505;49.456;8.164;2023-02-02T13:28:35;100572.66;;;8.74;71.25
16777;BME280;8505;49.456;8.164;2023-02-02T13:31:13;100572.53;;;8.75;71.44
16777;BME280;8505;49.456;8.164;2023-02-02T13:33:46;100584.75;;;8.76;71.09
16777;BME280;8505;49.456;8.164;2023-02-02T13:36:19;100575.59;;;8.80;70.92
16777;BME280;8505;49.456;8.164;2023-02-02T13:38:53;100580.59;;;8.74;71.04